createdAt,value
2019-03-19T00:01:04.975Z,7.90
2019-03-19T00:03:33.984Z,9.80
2019-03-19T00:06:02.940Z,9.60
2019-03-19T00:08:32.051Z,10.37
2019-03-19T00:11:01.027Z,9.33
2019-03-19T00:13:30.144Z,9.67
2019-03-19T00:15:59.335Z,9.50
2019-03-19T00:18:28.217Z,10.60
2019-03-19T00:20:57.178Z,9.55
2019-03-19T00:23:26.236Z,9.70
2019-03-19T00:25:55.384Z,9.60
2019-03-19T00:28:24.308Z,9.33
2019-03-19T00:30:53.362Z,9.53
2019-03-19T00:33:22.500Z,9.50
2019-03-19T00:35:51.546Z,8.33
2019-03-19T00:38:20.645Z,8.67
2019-03-19T00:40:49.573Z,8.23
2019-03-19T00:43:18.603Z,9.70
2019-03-19T00:45:47.662Z,9.10
2019-03-19T00:48:16.664Z,9.10
2019-03-19T00:50:45.704Z,8.27
2019-03-19T00:53:14.608Z,9.60
2019-03-19T00:55:43.576Z,9.20
2019-03-19T00:58:12.654Z,9.57
2019-03-19T01:00:41.144Z,9.00
2019-03-19T01:03:11.129Z,8.87
2019-03-19T01:05:40.118Z,7.93
2019-03-19T01:08:09.176Z,8.43
2019-03-19T01:10:38.181Z,7.90
2019-03-19T01:13:07.187Z,8.10
2019-03-19T01:15:36.269Z,8.33
2019-03-19T01:18:05.228Z,7.63
2019-03-19T01:20:33.741Z,8.23
2019-03-19T01:23:02.632Z,7.93
2019-03-19T01:25:31.553Z,7.60
2019-03-19T01:28:00.438Z,7.33
2019-03-19T01:30:29.438Z,7.97
2019-03-19T01:32:57.963Z,7.60
2019-03-19T01:35:27.068Z,7.70
2019-03-19T01:37:56.065Z,8.80
2019-03-19T01:40:24.901Z,8.70
2019-03-19T01:42:53.488Z,9.17
2019-03-19T01:45:22.513Z,10.13
2019-03-19T01:47:51.476Z,10.37
2019-03-19T01:50:20.727Z,9.70
2019-03-19T01:52:49.708Z,9.70
2019-03-19T01:55:18.692Z,10.17
2019-03-19T01:57:47.660Z,10.33
2019-03-19T02:00:16.748Z,10.10
2019-03-19T02:02:45.573Z,9.70
2019-03-19T02:05:14.541Z,10.67
2019-03-19T02:07:43.533Z,12.53
2019-03-19T02:10:12.730Z,11.13
2019-03-19T02:12:41.660Z,10.77
2019-03-19T02:15:11.480Z,9.90
2019-03-19T02:17:40.428Z,9.97
2019-03-19T02:20:10.763Z,9.60
2019-03-19T02:22:39.740Z,10.03
2019-03-19T02:25:09.348Z,9.60
2019-03-19T02:27:37.914Z,8.00
2019-03-19T02:30:07.740Z,8.20
2019-03-19T02:32:36.705Z,6.43
2019-03-19T02:35:07.212Z,7.77
2019-03-19T02:37:36.236Z,6.80
2019-03-19T02:40:06.737Z,6.77
2019-03-19T02:42:35.645Z,6.80
2019-03-19T02:45:05.513Z,7.67
2019-03-19T02:47:34.556Z,6.90
2019-03-19T02:50:04.652Z,6.83
2019-03-19T02:52:33.689Z,7.37
2019-03-19T02:55:02.693Z,7.20
2019-03-19T02:57:31.581Z,7.40
2019-03-19T03:00:00.665Z,7.20
2019-03-19T03:02:29.841Z,7.33
2019-03-19T03:04:58.823Z,8.73
2019-03-19T03:07:27.286Z,9.13
2019-03-19T03:09:56.256Z,10.20
2019-03-19T03:12:25.265Z,9.63
2019-03-19T03:14:54.304Z,10.30
2019-03-19T03:17:23.347Z,11.03
2019-03-19T03:19:52.360Z,8.93
2019-03-19T03:22:21.299Z,10.40
2019-03-19T03:24:50.274Z,8.63
2019-03-19T03:27:19.287Z,9.90
2019-03-19T03:29:48.357Z,8.83
2019-03-19T03:32:17.306Z,9.40
2019-03-19T03:34:46.484Z,9.50
2019-03-19T03:37:15.636Z,9.80
2019-03-19T03:39:44.783Z,9.47
2019-03-19T03:42:14.021Z,9.20
2019-03-19T03:44:42.914Z,10.30
2019-03-19T03:47:11.833Z,10.40
2019-03-19T03:49:40.797Z,10.67
2019-03-19T03:52:09.273Z,8.90
2019-03-19T03:54:38.266Z,10.40
2019-03-19T03:57:07.282Z,9.43
2019-03-19T03:59:36.242Z,9.33
2019-03-19T04:02:05.233Z,10.13
2019-03-19T04:04:33.786Z,8.90
2019-03-19T04:07:02.775Z,9.27
2019-03-19T04:09:32.094Z,8.93
2019-03-19T04:12:01.122Z,9.40
2019-03-19T04:14:30.137Z,9.10
2019-03-19T04:16:58.950Z,9.37
2019-03-19T04:19:27.977Z,10.00
2019-03-19T04:21:56.875Z,9.10
2019-03-19T04:24:25.781Z,9.30
2019-03-19T04:26:54.674Z,8.90
2019-03-19T04:29:23.688Z,8.67
2019-03-19T04:31:52.581Z,7.90
2019-03-19T04:34:21.752Z,7.73
2019-03-19T04:36:50.834Z,9.83
2019-03-19T04:39:19.821Z,9.80
2019-03-19T04:41:48.360Z,8.67
2019-03-19T04:44:17.357Z,8.87
2019-03-19T04:46:46.286Z,9.90
2019-03-19T04:49:15.296Z,9.50
2019-03-19T04:51:44.244Z,8.33
2019-03-19T04:54:13.179Z,9.90
2019-03-19T04:56:42.144Z,8.83
2019-03-19T04:59:11.016Z,8.67
2019-03-19T05:01:39.968Z,8.60
2019-03-19T05:04:08.392Z,8.50
2019-03-19T05:06:37.434Z,8.40
2019-03-19T05:09:07.995Z,7.60
2019-03-19T05:11:36.956Z,9.67
2019-03-19T05:14:05.852Z,9.00
2019-03-19T05:16:34.820Z,10.90
2019-03-19T05:19:03.331Z,9.60
2019-03-19T05:21:32.304Z,9.90
2019-03-19T05:24:01.271Z,9.90
2019-03-19T05:26:29.829Z,9.37
2019-03-19T05:28:58.361Z,9.10
2019-03-19T05:31:27.336Z,10.60
2019-03-19T05:33:56.441Z,9.07
2019-03-19T05:36:25.328Z,9.33
2019-03-19T05:38:54.323Z,9.33
2019-03-19T05:41:23.293Z,9.17
2019-03-19T05:43:52.288Z,10.70
2019-03-19T05:46:21.282Z,10.83
2019-03-19T05:48:50.264Z,9.80
2019-03-19T05:51:19.948Z,9.60
2019-03-19T05:53:48.445Z,10.50
2019-03-19T05:56:17.164Z,9.50
2019-03-19T05:58:46.124Z,10.00
2019-03-19T06:01:14.768Z,10.13
2019-03-19T06:03:45.800Z,9.27
2019-03-19T06:06:14.705Z,10.07
2019-03-19T06:08:43.595Z,10.47
2019-03-19T06:11:12.677Z,8.63
2019-03-19T06:13:41.587Z,9.47
2019-03-19T06:16:10.634Z,9.00
2019-03-19T06:18:39.622Z,9.70
2019-03-19T06:21:08.233Z,9.13
2019-03-19T06:23:37.197Z,8.70
2019-03-19T06:26:05.717Z,10.23
2019-03-19T06:28:35.743Z,12.17
2019-03-19T06:31:05.080Z,14.10
2019-03-19T06:33:34.093Z,12.73
2019-03-19T06:36:03.093Z,11.47
2019-03-19T06:38:32.078Z,9.70
2019-03-19T06:41:01.225Z,9.87
2019-03-19T06:43:30.253Z,8.07
2019-03-19T06:45:58.831Z,9.70
2019-03-19T06:48:27.468Z,8.10
2019-03-19T06:50:56.492Z,10.17
2019-03-19T06:53:25.426Z,9.97
2019-03-19T06:55:54.408Z,10.10
2019-03-19T06:58:23.444Z,10.20
2019-03-19T07:00:52.599Z,10.43
2019-03-19T07:03:21.562Z,9.50
2019-03-19T07:05:50.652Z,9.20
2019-03-19T07:08:19.201Z,8.43
2019-03-19T07:10:48.228Z,9.90
2019-03-19T07:13:17.182Z,9.30
2019-03-19T07:15:45.764Z,9.07
2019-03-19T07:18:14.719Z,8.30
2019-03-19T07:20:43.604Z,7.63
2019-03-19T07:23:12.585Z,9.37
2019-03-19T07:25:41.549Z,10.63
2019-03-19T07:28:21.423Z,11.10
2019-03-19T07:30:41.721Z,9.33
2019-03-19T07:33:10.688Z,10.87
2019-03-19T07:35:39.709Z,9.53
2019-03-19T07:38:08.690Z,9.60
2019-03-19T07:40:37.795Z,10.30
2019-03-19T07:43:06.322Z,9.43
2019-03-19T07:45:35.264Z,9.23
2019-03-19T07:48:04.310Z,8.83
2019-03-19T07:50:33.394Z,9.13
2019-03-19T07:53:02.385Z,8.57
2019-03-19T07:55:30.988Z,8.30
2019-03-19T07:58:00.240Z,8.40
2019-03-19T08:00:29.347Z,9.27
2019-03-19T08:02:59.493Z,8.73
2019-03-19T08:05:32.923Z,9.13
2019-03-19T08:07:59.198Z,8.90
2019-03-19T08:10:28.164Z,9.43
2019-03-19T08:12:57.272Z,8.77
2019-03-19T08:15:25.981Z,9.23
2019-03-19T08:17:54.981Z,9.73
2019-03-19T08:20:23.444Z,9.67
2019-03-19T08:22:52.429Z,10.20
2019-03-19T08:25:21.448Z,8.97
2019-03-19T08:27:50.522Z,10.07
2019-03-19T08:30:19.577Z,9.57
2019-03-19T08:32:48.292Z,9.90
2019-03-19T08:35:17.336Z,9.47
2019-03-19T08:37:46.335Z,9.00
2019-03-19T08:40:15.358Z,9.00
2019-03-19T08:42:44.393Z,9.67
2019-03-19T08:45:13.079Z,8.80
2019-03-19T08:47:42.328Z,9.60
2019-03-19T08:50:13.753Z,9.50
2019-03-19T08:52:42.667Z,8.90
2019-03-19T08:55:11.700Z,8.90
2019-03-19T08:57:40.784Z,9.80
2019-03-19T09:00:16.216Z,9.60
2019-03-19T09:02:45.378Z,10.73
2019-03-19T09:05:13.895Z,9.43
2019-03-19T09:07:42.930Z,8.90
2019-03-19T09:10:13.065Z,11.03
2019-03-19T09:12:42.261Z,9.33
2019-03-19T09:15:11.573Z,8.90
2019-03-19T09:17:40.653Z,9.43
2019-03-19T09:20:11.306Z,9.50
2019-03-19T09:22:40.708Z,9.20
2019-03-19T09:25:09.732Z,8.70
2019-03-19T09:27:39.678Z,7.97
2019-03-19T09:30:11.052Z,8.20
2019-03-19T09:32:40.097Z,8.50
2019-03-19T09:35:09.031Z,7.97
2019-03-19T09:37:44.109Z,7.80
2019-03-19T09:40:09.300Z,6.90
2019-03-19T09:42:38.337Z,5.30
2019-03-19T09:45:07.866Z,8.17
2019-03-19T09:47:38.584Z,7.33
2019-03-19T09:50:08.818Z,7.90
2019-03-19T09:52:37.776Z,7.27
2019-03-19T09:55:07.280Z,6.83
2019-03-19T09:57:36.312Z,7.67
2019-03-19T10:00:07.044Z,7.10
2019-03-19T10:02:36.234Z,4.67
2019-03-19T10:05:05.451Z,6.20
2019-03-19T10:07:34.484Z,5.87
2019-03-19T10:10:03.486Z,6.87
2019-03-19T10:12:32.053Z,7.40
2019-03-19T10:15:01.010Z,8.20
2019-03-19T10:17:29.991Z,7.43
2019-03-19T10:19:58.960Z,6.90
2019-03-19T10:22:28.296Z,6.57
2019-03-19T10:24:56.833Z,8.20
2019-03-19T10:27:25.908Z,8.70
2019-03-19T10:29:54.478Z,6.77
2019-03-19T10:32:23.477Z,5.40
2019-03-19T10:34:52.510Z,5.73
2019-03-19T10:37:21.408Z,5.80
2019-03-19T10:39:50.418Z,7.00
2019-03-19T10:42:19.510Z,6.27
2019-03-19T10:44:48.081Z,7.93
2019-03-19T10:47:17.108Z,7.30
2019-03-19T10:49:46.355Z,6.97
2019-03-19T10:52:15.323Z,7.90
2019-03-19T10:54:44.393Z,8.07
2019-03-19T10:57:16.393Z,8.60
2019-03-19T10:59:49.303Z,8.27
2019-03-19T11:02:16.267Z,6.20
2019-03-19T11:04:45.206Z,6.10
2019-03-19T11:07:15.242Z,6.00
2019-03-19T11:09:44.553Z,6.33
2019-03-19T11:12:13.588Z,5.60
2019-03-19T11:14:42.702Z,6.10
2019-03-19T11:17:11.713Z,6.93
2019-03-19T11:19:40.337Z,6.67
2019-03-19T11:22:09.304Z,6.20
2019-03-19T11:24:38.283Z,5.30
2019-03-19T11:27:07.261Z,5.33
2019-03-19T11:29:36.323Z,5.17
2019-03-19T11:32:05.294Z,4.53
2019-03-19T11:34:34.277Z,5.37
2019-03-19T11:37:03.376Z,5.07
2019-03-19T16:28:02.537Z,2.47
2019-03-19T17:39:08.660Z,2.43
2019-03-19T17:41:37.657Z,2.47
2019-03-19T17:44:06.779Z,3.77
2019-03-19T17:46:35.930Z,2.93
2019-03-19T17:49:04.917Z,2.77
2019-03-19T17:51:33.937Z,2.90
2019-03-19T17:54:03.057Z,3.30
2019-03-19T17:56:31.687Z,3.33
2019-03-19T17:59:00.682Z,2.67
2019-03-19T18:01:29.283Z,2.70
2019-03-19T18:03:58.370Z,3.23
2019-03-19T18:06:27.459Z,3.60
2019-03-19T18:08:56.074Z,3.30
2019-03-19T18:11:25.125Z,3.37
2019-03-19T18:13:54.114Z,3.13
2019-03-19T18:16:23.970Z,3.30
2019-03-19T18:18:53.135Z,3.40
2019-03-19T18:21:21.730Z,3.40
2019-03-19T18:23:50.854Z,3.03
2019-03-19T18:26:19.979Z,3.83
2019-03-19T18:28:48.612Z,5.20
2019-03-19T18:31:17.775Z,4.30
2019-03-19T18:33:47.065Z,3.63
2019-03-19T18:36:16.292Z,4.57
2019-03-19T18:38:44.836Z,3.70
2019-03-19T18:41:14.006Z,4.93
2019-03-19T18:43:43.015Z,3.90
2019-03-19T18:46:11.601Z,3.70
2019-03-19T18:48:40.757Z,5.90
2019-03-19T18:51:09.846Z,5.10
2019-03-19T18:53:39.033Z,5.97
2019-03-19T18:56:07.997Z,4.40
2019-03-19T18:58:37.007Z,5.43
2019-03-19T19:01:06.273Z,5.13
2019-03-19T19:03:35.233Z,5.27
2019-03-19T19:06:04.312Z,5.43
2019-03-19T19:08:32.860Z,6.30
2019-03-19T19:11:01.861Z,5.70
2019-03-19T19:13:30.960Z,5.57
2019-03-19T19:15:59.960Z,4.60
2019-03-19T19:18:29.057Z,5.50
2019-03-19T19:20:58.793Z,4.63
2019-03-19T19:23:27.730Z,4.63
2019-03-19T19:25:56.809Z,4.73
2019-03-19T19:28:25.913Z,5.10
2019-03-19T19:30:54.936Z,4.50
2019-03-19T19:33:24.033Z,5.37
2019-03-19T19:35:53.181Z,5.60
2019-03-19T19:38:21.713Z,6.90
2019-03-19T19:40:50.708Z,7.30
2019-03-19T19:43:19.354Z,6.30
2019-03-19T19:45:48.372Z,6.20
2019-03-19T19:48:17.447Z,5.40
2019-03-19T19:50:46.993Z,5.67
2019-03-19T19:53:15.923Z,5.63
2019-03-19T19:55:44.578Z,5.73
2019-03-19T19:58:13.712Z,6.63
2019-03-19T20:00:42.824Z,6.07
2019-03-19T20:03:12.826Z,6.23
2019-03-19T20:05:42.009Z,6.03
2019-03-19T20:08:11.222Z,6.23
2019-03-19T20:10:40.292Z,5.40
2019-03-19T20:13:09.424Z,6.47
2019-03-19T20:15:38.758Z,6.03
2019-03-19T20:18:07.770Z,5.30
2019-03-19T20:20:36.871Z,5.50
2019-03-19T20:23:05.981Z,5.03
2019-03-19T20:25:35.094Z,6.27
2019-03-19T20:28:04.189Z,5.70
2019-03-19T20:30:33.243Z,6.40
2019-03-19T20:33:02.167Z,7.20
2019-03-19T20:35:31.283Z,5.90
2019-03-19T20:38:00.477Z,6.80
2019-03-19T20:40:29.709Z,6.53
2019-03-19T20:42:58.971Z,6.47
2019-03-19T20:45:27.540Z,7.00
2019-03-19T20:47:56.646Z,6.20
2019-03-19T20:50:28.041Z,6.87
2019-03-19T20:52:57.141Z,6.33
2019-03-19T20:55:26.260Z,6.60
2019-03-19T20:57:55.375Z,6.77
2019-03-19T21:00:24.480Z,5.47
2019-03-19T21:02:53.758Z,5.37
2019-03-19T21:05:22.371Z,6.50
2019-03-19T21:07:51.484Z,5.50
2019-03-19T21:10:20.657Z,5.73
2019-03-19T21:12:49.738Z,5.70
2019-03-19T21:15:20.500Z,7.17
2019-03-19T21:17:49.804Z,6.27
2019-03-19T21:20:18.896Z,6.60
2019-03-19T21:22:48.048Z,7.20
2019-03-19T21:25:17.122Z,6.87
2019-03-19T21:27:46.170Z,7.03
2019-03-19T21:30:15.788Z,6.53
2019-03-19T21:32:44.857Z,6.73
2019-03-19T21:35:13.989Z,8.10
2019-03-19T21:37:42.552Z,6.90
2019-03-19T21:40:12.685Z,6.90
2019-03-19T21:42:41.700Z,10.37
2019-03-19T21:45:11.191Z,8.37
2019-03-19T21:47:39.755Z,7.23
2019-03-19T21:50:10.466Z,8.07
2019-03-19T21:52:39.629Z,7.50
2019-03-19T21:55:08.925Z,7.60
2019-03-19T21:57:38.084Z,6.30
2019-03-19T22:00:10.740Z,5.73
2019-03-19T22:02:39.889Z,5.90
2019-03-19T22:05:09.189Z,5.67
2019-03-19T22:07:38.137Z,5.70
2019-03-19T22:10:09.496Z,6.20
2019-03-19T22:12:38.616Z,6.53
2019-03-19T22:15:12.520Z,5.50
2019-03-19T22:17:41.663Z,5.20
2019-03-19T22:20:11.328Z,6.47
2019-03-19T22:22:40.468Z,6.00
2019-03-19T22:25:09.544Z,7.50
2019-03-19T22:27:38.624Z,5.67
2019-03-19T22:30:09.925Z,7.10
2019-03-19T22:32:38.670Z,6.60
2019-03-19T22:35:07.882Z,6.97
2019-03-19T22:37:36.476Z,6.70
2019-03-19T22:40:07.149Z,6.77
2019-03-19T22:42:36.256Z,7.70
2019-03-19T22:45:05.909Z,7.83
2019-03-19T22:47:34.993Z,7.43
2019-03-19T22:50:04.180Z,6.60
2019-03-19T22:52:32.787Z,6.70
2019-03-19T22:55:01.368Z,7.37
2019-03-19T22:57:30.436Z,7.73
2019-03-19T22:59:59.495Z,7.87
2019-03-19T23:02:28.496Z,8.63
2019-03-19T23:04:57.428Z,8.70
2019-03-19T23:07:26.525Z,8.30
2019-03-19T23:10:14.252Z,8.43
2019-03-19T23:12:44.399Z,7.50
2019-03-19T23:15:12.932Z,7.83
2019-03-19T23:17:42.107Z,8.70
2019-03-19T23:20:11.120Z,8.40
2019-03-19T23:22:40.097Z,7.90
2019-03-19T23:25:09.140Z,7.57
2019-03-19T23:27:38.136Z,9.00
2019-03-19T23:30:07.264Z,7.70
2019-03-19T23:32:36.599Z,7.50
2019-03-19T23:35:05.708Z,7.87
2019-03-19T23:37:34.699Z,7.10
2019-03-19T23:40:04.281Z,8.83
2019-03-19T23:42:32.812Z,7.70
2019-03-19T23:45:01.772Z,7.70
2019-03-19T23:47:30.738Z,7.30
2019-03-19T23:49:59.752Z,7.50
2019-03-19T23:52:28.765Z,7.37
2019-03-19T23:54:57.808Z,7.77
2019-03-19T23:57:26.830Z,6.83
2019-03-19T23:59:55.276Z,7.93
